createdAt,value
2018-04-13T00:00:06.790Z,11.41
2018-04-13T00:01:06.773Z,11.42
2018-04-13T00:02:06.735Z,11.42
2018-04-13T00:03:06.739Z,11.41
2018-04-13T00:04:06.698Z,11.41
2018-04-13T00:05:06.685Z,11.27
2018-04-13T00:06:06.671Z,11.30
2018-04-13T00:07:07.647Z,11.27
2018-04-13T00:08:06.622Z,11.27
2018-04-13T00:09:07.587Z,11.24
2018-04-13T00:10:06.560Z,11.24
2018-04-13T00:11:13.440Z,11.19
2018-04-13T00:12:06.491Z,11.16
2018-04-13T00:13:06.483Z,11.17
2018-04-13T00:14:06.461Z,11.17
2018-04-13T00:15:06.449Z,11.26
2018-04-13T00:16:06.398Z,11.24
2018-04-13T00:17:11.929Z,11.08
2018-04-13T00:18:06.359Z,11.13
2018-04-13T00:19:06.343Z,11.23
2018-04-13T00:20:06.299Z,11.11
2018-04-13T00:21:08.286Z,11.20
2018-04-13T00:22:06.252Z,11.11
2018-04-13T00:23:07.237Z,11.13
2018-04-13T00:24:06.221Z,11.05
2018-04-13T00:25:08.210Z,11.08
2018-04-13T00:26:06.162Z,11.05
2018-04-13T00:27:08.139Z,11.09
2018-04-13T00:28:06.102Z,11.06
2018-04-13T00:29:07.128Z,11.08
2018-04-13T00:30:06.065Z,10.93
2018-04-13T00:31:07.062Z,10.93
2018-04-13T00:32:06.013Z,10.99
2018-04-13T00:33:05.999Z,10.93
2018-04-13T00:34:05.954Z,10.95
2018-04-13T00:35:11.944Z,10.94
2018-04-13T00:36:05.925Z,10.93
2018-04-13T00:37:06.942Z,10.95
2018-04-13T00:38:05.854Z,10.93
2018-04-13T00:39:05.839Z,10.87
2018-04-13T00:40:05.808Z,10.93
2018-04-13T00:41:10.432Z,10.93
2018-04-13T00:42:05.763Z,10.84
2018-04-13T00:43:06.743Z,10.88
2018-04-13T00:44:05.729Z,10.87
2018-04-13T00:45:05.748Z,10.83
2018-04-13T00:46:05.661Z,10.83
2018-04-13T00:47:05.647Z,10.91
2018-04-13T00:48:05.616Z,10.84
2018-04-13T00:49:05.602Z,10.88
2018-04-13T00:50:05.599Z,10.84
2018-04-13T00:51:11.443Z,10.88
2018-04-13T00:52:05.540Z,10.87
2018-04-13T00:53:05.536Z,10.76
2018-04-13T00:54:05.482Z,10.75
2018-04-13T00:55:05.464Z,10.78
2018-04-13T00:56:05.449Z,10.72
2018-04-13T00:57:05.403Z,10.73
2018-04-13T00:58:05.380Z,10.78
2018-04-13T00:59:05.355Z,10.75
2018-04-13T01:00:05.336Z,10.78
2018-04-13T01:01:06.307Z,10.73
2018-04-13T01:02:05.284Z,10.70
2018-04-13T01:03:07.317Z,10.68
2018-04-13T01:04:05.234Z,10.63
2018-04-13T01:05:05.203Z,10.69
2018-04-13T01:06:05.190Z,10.66
2018-04-13T01:07:05.173Z,10.69
2018-04-13T01:08:05.134Z,10.62
2018-04-13T01:09:05.100Z,10.65
2018-04-13T01:10:05.079Z,10.62
2018-04-13T01:11:05.071Z,10.63
2018-04-13T01:12:05.036Z,10.68
2018-04-13T01:13:05.018Z,10.68
2018-04-13T01:14:04.971Z,10.65
2018-04-13T01:15:04.958Z,10.72
2018-04-13T01:16:04.930Z,10.70
2018-04-13T01:17:04.907Z,10.75
2018-04-13T01:18:04.898Z,10.68
2018-04-13T01:19:04.860Z,10.73
2018-04-13T01:20:04.823Z,10.75
2018-04-13T01:21:04.811Z,10.73
2018-04-13T01:22:04.782Z,10.80
2018-04-13T01:23:10.458Z,10.70
2018-04-13T01:24:04.730Z,10.70
2018-04-13T01:25:05.712Z,10.70
2018-04-13T01:26:04.729Z,10.75
2018-04-13T01:27:05.689Z,10.81
2018-04-13T01:28:04.633Z,10.78
2018-04-13T01:29:05.603Z,10.76
2018-04-13T01:30:04.583Z,10.72
2018-04-13T01:31:10.462Z,10.76
2018-04-13T01:32:04.540Z,10.86
2018-04-13T01:33:06.530Z,10.78
2018-04-13T01:34:04.473Z,10.78
2018-04-13T01:35:05.500Z,10.86
2018-04-13T01:36:04.435Z,10.91
2018-04-13T01:37:05.413Z,10.83
2018-04-13T01:38:04.388Z,10.86
2018-04-13T01:39:04.354Z,10.91
2018-04-13T01:40:04.331Z,10.91
2018-04-13T01:41:04.319Z,10.93
2018-04-13T01:42:04.289Z,10.90
2018-04-13T01:43:04.263Z,10.87
2018-04-13T01:44:04.226Z,10.90
2018-04-13T01:45:05.941Z,10.98
2018-04-13T01:46:04.196Z,10.91
2018-04-13T01:47:04.188Z,10.91
2018-04-13T01:48:04.138Z,10.94
2018-04-13T01:49:04.114Z,10.91
2018-04-13T01:50:06.099Z,10.86
2018-04-13T01:51:04.077Z,10.88
2018-04-13T01:52:04.045Z,10.88
2018-04-13T01:53:04.019Z,10.84
2018-04-13T01:54:03.995Z,10.90
2018-04-13T01:55:03.948Z,10.90
2018-04-13T01:56:05.435Z,10.86
2018-04-13T01:57:03.910Z,10.80
2018-04-13T01:58:03.880Z,10.78
2018-04-13T01:59:05.864Z,10.80
2018-04-13T02:00:06.484Z,10.72
2018-04-13T02:01:03.809Z,10.73
2018-04-13T02:02:03.788Z,10.75
2018-04-13T02:03:05.443Z,10.62
2018-04-13T02:04:03.737Z,10.62
2018-04-13T02:05:05.239Z,10.70
2018-04-13T02:06:03.697Z,10.65
2018-04-13T02:07:05.436Z,10.58
2018-04-13T02:08:05.462Z,10.47
2018-04-13T02:09:03.615Z,10.49
2018-04-13T02:10:05.450Z,10.44
2018-04-13T02:11:05.445Z,10.38
2018-04-13T02:12:05.555Z,10.47
2018-04-13T02:13:03.523Z,10.38
2018-04-13T02:14:06.459Z,10.34
2018-04-13T02:15:05.439Z,10.34
2018-04-13T02:16:04.985Z,10.35
2018-04-13T02:17:04.997Z,10.13
2018-04-13T02:18:03.392Z,10.13
2018-04-13T02:19:04.385Z,10.10
2018-04-13T02:20:03.341Z,10.07
2018-04-13T02:21:03.327Z,10.02
2018-04-13T02:22:03.299Z,9.88
2018-04-13T02:23:03.269Z,9.88
2018-04-13T02:24:03.254Z,9.83
2018-04-13T02:25:05.254Z,9.88
2018-04-13T02:26:03.195Z,9.80
2018-04-13T02:27:05.216Z,9.75
2018-04-13T02:28:03.138Z,9.75
2018-04-13T02:29:05.153Z,9.80
2018-04-13T02:30:03.127Z,9.75
2018-04-13T02:31:04.097Z,9.74
2018-04-13T02:32:03.038Z,9.71
2018-04-13T02:33:03.014Z,9.67
2018-04-13T02:34:02.989Z,9.68
2018-04-13T02:35:03.984Z,9.63
2018-04-13T02:36:02.939Z,9.58
2018-04-13T02:37:03.945Z,9.58
2018-04-13T02:38:02.912Z,9.56
2018-04-13T02:39:02.868Z,9.55
2018-04-13T02:40:02.834Z,9.53
2018-04-13T02:41:04.889Z,9.50
2018-04-13T02:42:02.800Z,9.55
2018-04-13T02:43:03.778Z,9.44
2018-04-13T02:44:02.741Z,9.48
2018-04-13T02:45:03.736Z,9.48
2018-04-13T02:46:02.695Z,9.42
2018-04-13T02:47:03.707Z,9.40
2018-04-13T02:48:02.633Z,9.37
2018-04-13T02:49:02.643Z,9.34
2018-04-13T02:50:02.586Z,9.35
2018-04-13T02:51:02.603Z,9.40
2018-04-13T02:52:02.527Z,9.32
2018-04-13T02:53:04.528Z,9.34
2018-04-13T02:54:02.485Z,9.31
2018-04-13T02:55:04.474Z,9.37
2018-04-13T02:56:02.440Z,9.37
2018-04-13T02:57:02.417Z,9.37
2018-04-13T02:58:02.390Z,9.31
2018-04-13T02:59:02.367Z,9.26
2018-04-13T03:00:02.328Z,9.27
2018-04-13T03:01:02.309Z,9.23
2018-04-13T03:02:02.301Z,9.23
2018-04-13T03:03:02.275Z,9.23
2018-04-13T03:04:02.260Z,9.22
2018-04-13T03:05:03.630Z,9.34
2018-04-13T03:06:02.186Z,9.23
2018-04-13T03:07:02.176Z,9.31
2018-04-13T03:08:02.135Z,9.23
2018-04-13T03:09:02.118Z,9.30
2018-04-13T03:10:02.097Z,9.24
2018-04-13T03:11:02.082Z,9.26
2018-04-13T03:12:02.039Z,9.23
2018-04-13T03:13:13.980Z,9.26
2018-04-13T03:14:02.007Z,9.31
2018-04-13T03:15:02.964Z,9.24
2018-04-13T03:16:01.960Z,9.19
2018-04-13T03:17:03.982Z,9.20
2018-04-13T03:18:01.891Z,9.20
2018-04-13T03:19:01.890Z,9.12
2018-04-13T03:20:01.844Z,9.19
2018-04-13T03:21:01.836Z,9.15
2018-04-13T03:22:01.795Z,9.17
2018-04-13T03:23:02.793Z,9.17
2018-04-13T03:24:01.760Z,9.16
2018-04-13T03:25:01.740Z,9.15
2018-04-13T03:26:01.706Z,9.15
2018-04-13T03:27:01.685Z,9.10
2018-04-13T03:28:01.641Z,9.13
2018-04-13T03:29:01.622Z,9.13
2018-04-13T03:30:01.613Z,9.10
2018-04-13T03:31:01.599Z,9.16
2018-04-13T03:32:01.524Z,9.15
2018-04-13T03:33:01.512Z,9.08
2018-04-13T03:34:01.484Z,9.06
2018-04-13T03:35:02.471Z,8.93
2018-04-13T03:36:01.438Z,8.93
2018-04-13T03:37:07.005Z,8.88
2018-04-13T03:38:01.380Z,8.88
2018-04-13T03:39:01.366Z,8.88
2018-04-13T03:40:01.361Z,8.89
2018-04-13T03:41:02.302Z,8.89
2018-04-13T03:42:01.285Z,8.91
2018-04-13T03:43:01.326Z,8.91
2018-04-13T03:44:01.239Z,8.91
2018-04-13T03:45:02.229Z,8.93
2018-04-13T03:46:01.233Z,8.93
2018-04-13T03:47:01.164Z,8.86
2018-04-13T03:48:01.145Z,8.83
2018-04-13T03:49:01.141Z,8.85
2018-04-13T03:50:01.068Z,8.86
2018-04-13T03:51:01.069Z,8.85
2018-04-13T03:52:01.048Z,8.80
2018-04-13T03:53:01.020Z,8.82
2018-04-13T03:54:00.990Z,8.75
2018-04-13T03:55:00.961Z,8.70
2018-04-13T03:56:00.942Z,8.82
2018-04-13T03:57:01.941Z,8.86
2018-04-13T03:58:00.904Z,8.71
2018-04-13T03:59:00.885Z,8.71
2018-04-13T04:00:00.836Z,8.79
2018-04-13T04:01:00.796Z,8.78
2018-04-13T04:02:00.779Z,8.79
2018-04-13T04:03:00.753Z,8.82
2018-04-13T04:04:00.723Z,8.80
2018-04-13T04:05:00.702Z,8.76
2018-04-13T04:06:00.676Z,8.75
2018-04-13T04:07:00.643Z,8.65
2018-04-13T04:08:00.619Z,8.76
2018-04-13T04:09:00.621Z,8.76
2018-04-13T04:10:00.584Z,8.71
2018-04-13T04:11:00.568Z,8.82
2018-04-13T04:12:00.539Z,8.80
2018-04-13T04:13:00.544Z,8.82
2018-04-13T04:14:00.472Z,8.83
2018-04-13T04:15:00.487Z,8.78
2018-04-13T04:16:00.425Z,8.85
2018-04-13T04:17:00.402Z,8.79
2018-04-13T04:18:00.373Z,8.67
2018-04-13T04:19:00.362Z,8.76
2018-04-13T04:20:00.325Z,8.70
2018-04-13T04:21:00.322Z,8.71
2018-04-13T04:22:00.260Z,8.68
2018-04-13T04:23:00.297Z,8.71
2018-04-13T04:24:00.231Z,8.76
2018-04-13T04:25:00.212Z,8.68
2018-04-13T04:26:00.179Z,8.71
2018-04-13T04:27:00.151Z,8.75
2018-04-13T04:28:00.133Z,8.67
2018-04-13T04:29:01.111Z,8.64
2018-04-13T04:30:00.095Z,8.71
2018-04-13T04:31:01.056Z,8.70
2018-04-13T04:32:00.019Z,8.75
2018-04-13T04:32:59.998Z,8.73
2018-04-13T04:33:59.969Z,8.65
2018-04-13T04:34:59.938Z,8.70
2018-04-13T04:35:59.920Z,8.75
2018-04-13T04:37:00.902Z,8.78
2018-04-13T04:37:59.894Z,8.65
2018-04-13T04:38:59.875Z,8.70
2018-04-13T04:39:59.828Z,8.71
2018-04-13T04:40:59.807Z,8.70
2018-04-13T04:41:59.769Z,8.65
2018-04-13T04:42:59.741Z,8.70
2018-04-13T04:43:59.722Z,8.63
2018-04-13T04:44:59.724Z,8.58
2018-04-13T04:45:59.657Z,8.67
2018-04-13T04:47:00.643Z,8.61
2018-04-13T04:47:59.609Z,8.61
2018-04-13T04:48:59.588Z,8.65
2018-04-13T04:49:59.558Z,8.63
2018-04-13T04:51:00.542Z,8.68
2018-04-13T04:51:59.509Z,8.70
2018-04-13T04:52:59.480Z,8.67
2018-04-13T04:53:59.454Z,8.67
2018-04-13T04:55:00.428Z,8.68
2018-04-13T04:55:59.408Z,8.70
2018-04-13T04:56:59.390Z,8.71
2018-04-13T04:57:59.367Z,8.65
2018-04-13T04:58:59.333Z,8.76
2018-04-13T04:59:59.321Z,8.67
2018-04-13T05:01:00.296Z,8.75
2018-04-13T05:01:59.318Z,8.70
2018-04-13T05:02:59.232Z,8.68
2018-04-13T05:03:59.204Z,8.83
2018-04-13T05:04:59.186Z,8.80
2018-04-13T05:05:59.160Z,8.86
2018-04-13T05:06:59.129Z,8.86
2018-04-13T05:07:59.101Z,8.93
2018-04-13T05:08:59.080Z,8.85
2018-04-13T05:09:59.045Z,9.01
2018-04-13T05:10:59.029Z,9.01
2018-04-13T05:11:58.998Z,9.01
2018-04-13T05:12:58.984Z,9.01
2018-04-13T05:13:58.959Z,9.12
2018-04-13T05:14:58.931Z,9.08
2018-04-13T05:15:58.920Z,9.13
2018-04-13T05:16:59.898Z,9.19
2018-04-13T05:17:58.851Z,9.23
2018-04-13T05:18:58.854Z,9.31
2018-04-13T05:19:58.817Z,9.24
2018-04-13T05:20:58.776Z,9.23
2018-04-13T05:21:58.752Z,9.35
2018-04-13T05:22:58.723Z,9.32
2018-04-13T05:23:58.719Z,9.40
2018-04-13T05:24:58.673Z,9.45
2018-04-13T05:25:58.640Z,9.45
2018-04-13T05:26:59.622Z,9.53
2018-04-13T05:27:58.601Z,9.53
2018-04-13T05:28:58.574Z,9.49
2018-04-13T05:29:58.553Z,9.58
2018-04-13T05:30:58.608Z,9.52
2018-04-13T05:31:58.492Z,9.58
2018-04-13T05:32:58.476Z,9.62
2018-04-13T05:33:58.461Z,9.56
2018-04-13T05:34:58.432Z,9.67
2018-04-13T05:35:58.407Z,9.62
2018-04-13T05:36:58.457Z,9.63
2018-04-13T05:37:58.342Z,9.71
2018-04-13T05:38:58.411Z,9.75
2018-04-13T05:39:58.334Z,9.73
2018-04-13T05:40:58.377Z,9.71
2018-04-13T05:41:58.262Z,9.71
2018-04-13T05:42:59.344Z,9.83
2018-04-13T05:43:58.204Z,9.80
2018-04-13T05:44:58.172Z,9.86
2018-04-13T05:45:58.146Z,9.83
2018-04-13T05:46:58.222Z,9.83
2018-04-13T05:47:58.106Z,9.83
2018-04-13T05:48:58.113Z,9.89
2018-04-13T05:49:58.046Z,9.92
2018-04-13T05:50:58.029Z,9.95
2018-04-13T05:51:58.029Z,10.01
2018-04-13T05:52:58.065Z,10.06
2018-04-13T05:53:57.942Z,10.02
2018-04-13T05:54:57.958Z,10.06
2018-04-13T05:55:57.888Z,10.11
2018-04-13T05:56:58.003Z,10.14
2018-04-13T05:57:57.835Z,10.13
2018-04-13T05:58:57.894Z,10.25
2018-04-13T05:59:57.868Z,10.26
2018-04-13T06:00:57.753Z,10.24
2018-04-13T06:01:57.801Z,10.36
2018-04-13T06:02:57.711Z,10.32
2018-04-13T06:03:57.710Z,10.39
2018-04-13T06:04:57.658Z,10.42
2018-04-13T06:05:58.644Z,10.34
2018-04-13T06:06:57.620Z,10.46
2018-04-13T06:07:57.660Z,10.49
2018-04-13T06:08:57.559Z,10.46
2018-04-13T06:09:57.552Z,10.49
2018-04-13T06:10:57.516Z,10.57
2018-04-13T06:11:57.577Z,10.58
2018-04-13T06:12:57.463Z,10.58
2018-04-13T06:13:58.504Z,10.66
2018-04-13T06:14:57.393Z,10.68
2018-04-13T06:15:57.485Z,10.73
2018-04-13T06:16:57.386Z,10.75
2018-04-13T06:17:57.400Z,10.75
2018-04-13T06:18:57.308Z,10.81
2018-04-13T06:19:57.315Z,10.90
2018-04-13T06:20:57.290Z,10.83
2018-04-13T06:21:57.328Z,11.01
2018-04-13T06:22:57.237Z,11.01
2018-04-13T06:23:57.233Z,11.05
2018-04-13T06:24:57.152Z,11.05
2018-04-13T06:25:57.154Z,11.23
2018-04-13T06:26:57.111Z,11.21
2018-04-13T06:27:57.075Z,11.24
2018-04-13T06:28:57.094Z,11.28
2018-04-13T06:29:57.036Z,11.35
2018-04-13T06:30:57.025Z,11.38
2018-04-13T06:31:56.986Z,11.45
2018-04-13T06:32:56.986Z,11.45
2018-04-13T06:33:56.951Z,11.51
2018-04-13T06:34:57.006Z,11.39
2018-04-13T06:35:56.884Z,11.49
2018-04-13T06:36:57.944Z,11.49
2018-04-13T06:37:56.863Z,11.51
2018-04-13T06:38:56.847Z,11.63
2018-04-13T06:39:56.760Z,11.67
2018-04-13T06:40:56.739Z,11.69
2018-04-13T06:41:56.717Z,11.62
2018-04-13T06:42:56.686Z,11.66
2018-04-13T06:43:56.755Z,11.63
2018-04-13T06:44:56.634Z,11.60
2018-04-13T06:45:56.606Z,11.64
2018-04-13T06:46:56.584Z,11.63
2018-04-13T06:47:56.580Z,11.62
2018-04-13T06:48:56.558Z,11.54
2018-04-13T06:49:56.597Z,11.59
2018-04-13T06:50:56.501Z,11.46
2018-04-13T06:51:56.476Z,11.54
2018-04-13T06:52:56.442Z,11.53
2018-04-13T06:53:56.420Z,11.54
2018-04-13T06:54:56.412Z,11.60
2018-04-13T06:55:56.371Z,11.70
2018-04-13T06:56:56.332Z,11.77
2018-04-13T06:57:56.346Z,11.77
2018-04-13T06:58:56.283Z,11.74
2018-04-13T06:59:56.252Z,11.84
2018-04-13T07:00:56.370Z,11.85
2018-04-13T07:01:56.214Z,11.94
2018-04-13T07:02:56.176Z,11.96
2018-04-13T07:03:56.215Z,11.90
2018-04-13T07:04:56.146Z,12.01
2018-04-13T07:05:56.124Z,12.05
2018-04-13T07:06:56.107Z,12.16
2018-04-13T07:07:56.074Z,12.12
2018-04-13T07:08:56.043Z,12.22
2018-04-13T07:09:56.010Z,12.30
2018-04-13T07:10:55.988Z,12.36
2018-04-13T07:11:56.029Z,12.46
2018-04-13T07:12:56.002Z,12.44
2018-04-13T07:13:55.943Z,12.51
2018-04-13T07:14:55.893Z,12.67
2018-04-13T07:15:55.846Z,12.74
2018-04-13T07:16:56.898Z,12.76
2018-04-13T07:17:55.829Z,12.85
2018-04-13T07:18:56.818Z,12.94
2018-04-13T07:19:55.789Z,12.98
2018-04-13T07:20:55.733Z,13.04
2018-04-13T07:21:55.724Z,13.06
2018-04-13T07:22:55.702Z,13.13
2018-04-13T07:23:55.659Z,13.17
2018-04-13T07:24:55.715Z,13.25
2018-04-13T07:25:55.598Z,13.14
2018-04-13T07:26:55.565Z,13.19
2018-04-13T07:27:55.540Z,13.16
2018-04-13T07:28:55.527Z,13.21
2018-04-13T07:29:55.514Z,13.17
2018-04-13T07:30:55.482Z,13.17
2018-04-13T07:31:55.868Z,13.14
2018-04-13T07:32:55.415Z,13.12
2018-04-13T07:33:55.571Z,13.17
2018-04-13T07:34:55.348Z,13.12
2018-04-13T07:35:55.338Z,13.12
2018-04-13T07:36:55.313Z,13.17
2018-04-13T07:37:55.304Z,13.14
2018-04-13T07:38:55.496Z,13.09
2018-04-13T07:39:55.298Z,13.17
2018-04-13T07:40:55.220Z,13.13
2018-04-13T07:41:55.187Z,13.24
2018-04-13T07:43:08.162Z,13.35
2018-04-13T07:44:07.046Z,13.28
2018-04-13T07:45:08.029Z,13.28
2018-04-13T07:46:06.978Z,13.29
2018-04-13T07:47:07.071Z,13.32
2018-04-13T07:48:06.943Z,13.31
2018-04-13T07:49:06.896Z,13.44
2018-04-13T07:50:07.314Z,13.59
2018-04-13T07:51:06.872Z,13.51
2018-04-13T07:52:06.979Z,13.51
2018-04-13T07:53:06.798Z,13.66
2018-04-13T07:54:06.855Z,13.73
2018-04-13T07:55:06.751Z,13.73
2018-04-13T07:56:06.730Z,13.80
2018-04-13T07:57:06.690Z,13.84
2018-04-13T07:58:06.813Z,13.87
2018-04-13T07:59:06.643Z,13.98
2018-04-13T08:00:06.696Z,13.99
2018-04-13T08:01:06.593Z,13.94
2018-04-13T08:02:06.615Z,13.94
2018-04-13T08:03:06.569Z,13.94
2018-04-13T08:04:06.527Z,14.01
2018-04-13T08:05:06.511Z,13.99
2018-04-13T08:06:06.468Z,14.09
2018-04-13T08:07:07.459Z,14.01
2018-04-13T08:08:06.411Z,14.08
2018-04-13T08:09:06.397Z,14.20
2018-04-13T08:10:07.390Z,14.24
2018-04-13T08:11:06.409Z,14.34
2018-04-13T08:12:06.379Z,14.24
2018-04-13T08:13:06.293Z,14.31
2018-04-13T08:14:07.328Z,14.38
2018-04-13T08:15:06.342Z,14.48
2018-04-13T08:16:06.210Z,14.45
2018-04-13T08:17:06.221Z,14.53
2018-04-13T08:18:06.169Z,14.52
2018-04-13T08:19:06.227Z,14.53
2018-04-13T08:20:06.101Z,14.60
2018-04-13T08:21:06.157Z,14.54
2018-04-13T08:22:06.096Z,14.66
2018-04-13T08:23:06.056Z,14.61
2018-04-13T08:24:06.047Z,14.60
2018-04-13T08:25:05.998Z,14.60
2018-04-13T08:26:05.961Z,14.66
2018-04-13T08:27:05.990Z,14.64
2018-04-13T08:28:05.919Z,14.69
2018-04-13T08:29:05.889Z,14.61
2018-04-13T08:30:05.963Z,14.74
2018-04-13T08:31:05.830Z,14.71
2018-04-13T08:32:06.947Z,14.71
2018-04-13T08:33:05.777Z,14.80
2018-04-13T08:34:05.763Z,14.78
2018-04-13T08:35:05.857Z,14.86
2018-04-13T08:36:05.708Z,14.80
2018-04-13T08:37:05.742Z,14.79
2018-04-13T08:38:05.661Z,14.87
2018-04-13T08:39:06.684Z,14.91
2018-04-13T08:40:05.600Z,14.86
2018-04-13T08:41:05.675Z,14.87
2018-04-13T08:42:05.568Z,14.97
2018-04-13T08:43:06.609Z,15.00
2018-04-13T08:44:05.499Z,15.12
2018-04-13T08:45:07.540Z,15.18
2018-04-13T08:46:05.495Z,15.19
2018-04-13T08:47:05.507Z,15.15
2018-04-13T08:48:05.396Z,15.28
2018-04-13T08:49:05.544Z,15.33
2018-04-13T08:50:05.356Z,15.34
2018-04-13T08:51:05.445Z,15.44
2018-04-13T08:52:05.328Z,15.43
2018-04-13T08:53:05.398Z,15.43
2018-04-13T08:54:05.309Z,15.48
2018-04-13T08:55:05.256Z,15.55
2018-04-13T08:56:05.206Z,15.53
2018-04-13T08:57:09.786Z,15.53
2018-04-13T08:58:05.183Z,15.56
2018-04-13T08:59:05.139Z,15.66
2018-04-13T09:00:05.212Z,15.70
2018-04-13T09:01:05.085Z,15.62
2018-04-13T09:02:05.098Z,15.64
2018-04-13T09:03:05.032Z,15.60
2018-04-13T09:04:05.065Z,15.67
2018-04-13T09:05:04.983Z,15.68
2018-04-13T09:06:04.984Z,15.78
2018-04-13T09:07:04.953Z,15.77
2018-04-13T09:08:04.985Z,15.77
2018-04-13T09:09:04.870Z,15.78
2018-04-13T09:10:04.925Z,15.86
2018-04-13T09:11:04.837Z,15.99
2018-04-13T09:12:04.809Z,16.03
2018-04-13T09:13:04.865Z,16.18
2018-04-13T09:14:04.835Z,16.17
2018-04-13T09:15:04.719Z,16.30
2018-04-13T09:16:05.773Z,16.23
2018-04-13T09:17:04.671Z,16.30
2018-04-13T09:18:05.684Z,16.36
2018-04-13T09:19:04.643Z,16.34
2018-04-13T09:20:05.697Z,16.36
2018-04-13T09:21:04.603Z,16.17
2018-04-13T09:22:05.595Z,16.16
2018-04-13T09:23:04.538Z,16.18
2018-04-13T09:24:04.607Z,16.11
2018-04-13T09:25:04.574Z,16.27
2018-04-13T09:26:04.500Z,16.32
2018-04-13T09:27:04.418Z,16.34
2018-04-13T09:28:04.409Z,16.33
2018-04-13T09:29:04.376Z,16.41
2018-04-13T09:30:09.901Z,16.34
2018-04-13T09:31:04.331Z,16.44
2018-04-13T09:32:04.383Z,16.47
2018-04-13T09:33:04.261Z,16.42
2018-04-13T09:34:04.352Z,16.40
2018-04-13T09:35:04.214Z,16.41
2018-04-13T09:36:04.265Z,16.41
2018-04-13T09:37:04.155Z,16.44
2018-04-13T09:38:04.191Z,16.41
2018-04-13T09:39:04.121Z,16.44
2018-04-13T09:40:06.129Z,16.60
2018-04-13T09:41:04.103Z,16.65
2018-04-13T09:42:04.100Z,16.54
2018-04-13T09:43:04.015Z,16.63
2018-04-13T09:44:05.043Z,16.63
2018-04-13T09:45:03.980Z,16.60
2018-04-13T09:46:04.033Z,16.60
2018-04-13T09:47:03.937Z,16.69
2018-04-13T09:48:03.937Z,16.66
2018-04-13T09:49:03.858Z,16.66
2018-04-13T09:50:03.961Z,16.73
2018-04-13T09:51:03.812Z,16.72
2018-04-13T09:52:03.868Z,16.77
2018-04-13T09:53:03.758Z,16.80
2018-04-13T09:54:03.782Z,16.73
2018-04-13T09:55:03.694Z,16.78
2018-04-13T09:56:03.778Z,16.88
2018-04-13T09:57:03.652Z,16.90
2018-04-13T09:58:03.692Z,16.90
2018-04-13T09:59:03.590Z,17.00
2018-04-13T10:00:03.597Z,16.98
2018-04-13T10:01:03.571Z,17.18
2018-04-13T10:02:03.648Z,17.14
2018-04-13T10:03:03.504Z,16.98
2018-04-13T10:04:04.546Z,17.10
2018-04-13T10:05:03.473Z,17.20
2018-04-13T10:06:03.435Z,17.10
2018-04-13T10:07:03.424Z,17.14
2018-04-13T10:08:03.446Z,17.18
2018-04-13T10:09:03.360Z,17.10
2018-04-13T10:10:05.421Z,17.15
2018-04-13T10:11:03.288Z,17.21
2018-04-13T10:12:04.300Z,17.18
2018-04-13T10:13:03.293Z,17.18
2018-04-13T10:14:03.283Z,17.18
2018-04-13T10:15:03.197Z,17.15
2018-04-13T10:16:03.242Z,17.22
2018-04-13T10:17:03.146Z,17.21
2018-04-13T10:18:03.216Z,17.21
2018-04-13T10:19:03.104Z,17.17
2018-04-13T10:20:03.133Z,17.28
2018-04-13T10:21:03.042Z,17.15
2018-04-13T10:22:03.025Z,17.24
2018-04-13T10:23:03.054Z,17.24
2018-04-13T10:24:02.965Z,17.22
2018-04-13T10:25:03.980Z,17.17
2018-04-13T10:26:02.940Z,17.18
2018-04-13T10:27:02.975Z,17.14
2018-04-13T10:28:02.887Z,17.20
2018-04-13T10:29:03.908Z,17.21
2018-04-13T10:30:02.822Z,17.27
2018-04-13T10:31:03.812Z,17.33
2018-04-13T10:32:02.802Z,17.36
2018-04-13T10:33:07.819Z,17.39
2018-04-13T10:34:02.711Z,17.33
2018-04-13T10:35:04.761Z,17.30
2018-04-13T10:36:02.660Z,17.32
2018-04-13T10:37:02.637Z,17.28
2018-04-13T10:38:02.651Z,17.35
2018-04-13T10:39:02.626Z,17.33
2018-04-13T10:40:02.564Z,17.38
2018-04-13T10:41:02.557Z,17.27
2018-04-13T10:42:02.514Z,17.21
2018-04-13T10:43:02.507Z,17.33
2018-04-13T10:44:02.573Z,17.35
2018-04-13T10:45:02.466Z,17.36
2018-04-13T10:46:02.493Z,17.43
2018-04-13T10:47:02.388Z,17.53
2018-04-13T10:48:02.382Z,17.51
2018-04-13T10:49:02.346Z,17.54
2018-04-13T10:50:03.341Z,17.58
2018-04-13T10:51:02.288Z,17.68
2018-04-13T10:52:02.327Z,17.63
2018-04-13T10:53:02.235Z,17.70
2018-04-13T10:54:02.228Z,17.71
2018-04-13T10:55:02.202Z,17.71
2018-04-13T10:56:04.292Z,17.68
2018-04-13T10:57:02.162Z,17.71
2018-04-13T10:58:03.175Z,17.58
2018-04-13T10:59:02.093Z,17.55
2018-04-13T11:00:03.105Z,17.53
2018-04-13T11:01:02.034Z,17.53
2018-04-13T11:02:02.076Z,17.68
2018-04-13T11:03:01.986Z,17.73
2018-04-13T11:04:01.975Z,17.73
2018-04-13T11:05:01.961Z,17.62
2018-04-13T11:06:02.008Z,17.73
2018-04-13T11:07:01.896Z,17.71
2018-04-13T11:08:01.912Z,17.70
2018-04-13T11:09:01.858Z,17.73
2018-04-13T11:10:01.819Z,17.70
2018-04-13T11:11:03.886Z,17.60
2018-04-13T11:12:01.770Z,17.65
2018-04-13T11:13:01.851Z,17.70
2018-04-13T11:14:01.726Z,17.68
2018-04-13T11:15:01.759Z,17.65
2018-04-13T11:16:01.662Z,17.58
2018-04-13T11:17:01.700Z,17.42
2018-04-13T11:18:01.646Z,17.36
2018-04-13T11:19:01.758Z,17.42
2018-04-13T11:20:01.618Z,17.51
2018-04-13T11:21:01.602Z,17.51
2018-04-13T11:22:01.541Z,17.47
2018-04-13T11:23:01.567Z,17.45
2018-04-13T11:24:01.478Z,17.43
2018-04-13T11:25:02.594Z,17.40
2018-04-13T11:26:01.445Z,17.36
2018-04-13T11:27:01.440Z,17.40
2018-04-13T11:28:01.376Z,17.35
2018-04-13T11:29:01.331Z,17.32
2018-04-13T11:30:01.367Z,17.27
2018-04-13T11:31:01.287Z,17.25
2018-04-13T11:32:01.354Z,17.21
2018-04-13T11:33:01.250Z,17.17
2018-04-13T11:34:01.221Z,17.15
2018-04-13T11:35:01.183Z,17.12
2018-04-13T11:36:01.178Z,17.02
2018-04-13T11:37:01.195Z,16.92
2018-04-13T11:38:01.146Z,17.03
2018-04-13T11:39:02.167Z,16.99
2018-04-13T11:40:01.071Z,17.02
2018-04-13T11:41:01.051Z,16.96
2018-04-13T11:42:01.040Z,17.03
2018-04-13T11:43:00.996Z,16.98
2018-04-13T11:44:02.080Z,16.98
2018-04-13T11:45:00.940Z,17.00
2018-04-13T11:46:01.993Z,17.00
2018-04-13T11:47:00.887Z,16.99
2018-04-13T11:48:01.007Z,16.87
2018-04-13T11:49:00.887Z,17.00
2018-04-13T11:50:00.900Z,16.85
2018-04-13T11:51:00.793Z,16.81
2018-04-13T11:52:00.767Z,16.80
2018-04-13T11:53:00.749Z,16.72
2018-04-13T11:54:00.731Z,16.78
2018-04-13T11:55:00.700Z,16.72
2018-04-13T11:56:00.663Z,16.81
2018-04-13T11:57:00.656Z,16.78
2018-04-13T11:58:00.781Z,16.75
2018-04-13T11:59:00.580Z,16.63
2018-04-13T12:00:00.635Z,16.66
2018-04-13T12:01:00.571Z,16.70
2018-04-13T12:02:00.540Z,16.70
2018-04-13T12:03:00.494Z,16.69
2018-04-13T12:04:00.575Z,16.65
2018-04-13T12:05:00.462Z,16.55
2018-04-13T12:06:00.508Z,16.62
2018-04-13T12:07:00.380Z,16.55
2018-04-13T12:08:00.535Z,16.51
2018-04-13T12:09:00.335Z,16.48
2018-04-13T12:10:00.349Z,16.47
2018-04-13T12:11:00.399Z,16.41
2018-04-13T12:12:00.256Z,16.37
2018-04-13T12:13:00.333Z,16.37
2018-04-13T12:14:00.209Z,16.33
2018-04-13T12:15:00.224Z,16.29
2018-04-13T12:16:00.156Z,16.33
2018-04-13T12:17:00.138Z,16.30
2018-04-13T12:18:00.108Z,16.30
2018-04-13T12:19:00.146Z,16.23
2018-04-13T12:20:00.063Z,16.16
2018-04-13T12:21:00.100Z,16.06
2018-04-13T12:22:00.021Z,16.11
2018-04-13T12:23:00.073Z,16.08
2018-04-13T12:23:59.991Z,16.08
2018-04-13T12:24:59.938Z,16.04
2018-04-13T12:25:59.931Z,16.08
2018-04-13T12:26:59.886Z,16.06
2018-04-13T12:27:59.905Z,15.99
2018-04-13T12:28:59.844Z,15.93
2018-04-13T12:29:59.928Z,15.95
2018-04-13T12:30:59.790Z,15.88
2018-04-13T12:31:59.765Z,15.98
2018-04-13T12:32:59.894Z,15.93
2018-04-13T12:33:59.740Z,15.92
2018-04-13T12:35:00.788Z,15.84
2018-04-13T12:35:59.670Z,15.78
2018-04-13T12:36:59.691Z,15.67
2018-04-13T12:37:59.639Z,15.67
2018-04-13T12:38:59.609Z,15.66
2018-04-13T12:39:59.553Z,15.64
2018-04-13T12:40:59.654Z,15.68
2018-04-13T12:41:59.517Z,15.60
2018-04-13T12:42:59.499Z,15.67
2018-04-13T12:43:59.464Z,15.58
2018-04-13T12:44:59.474Z,15.60
2018-04-13T12:45:59.416Z,15.55
2018-04-13T12:47:00.399Z,15.62
2018-04-13T12:47:59.384Z,15.67
2018-04-13T12:48:59.434Z,15.64
2018-04-13T12:49:59.386Z,15.71
2018-04-13T12:50:59.317Z,15.66
2018-04-13T12:51:59.275Z,15.74
2018-04-13T12:52:59.313Z,15.77
2018-04-13T12:53:59.242Z,15.78
2018-04-13T12:54:59.417Z,15.78
2018-04-13T12:55:59.208Z,15.68
2018-04-13T12:56:59.215Z,15.78
2018-04-13T12:57:59.136Z,15.76
2018-04-13T12:58:59.122Z,15.70